Time;durP1;ratioP1;P1;durP2;ratioP2;P2;SDS_P1;SDS_P2;PMS_P1;PMS_P2;Temp;Humidity;BMP_temperature;BMP_pressure;BME280_temperature;BME280_humidity;BME280_pressure;Samples;Min_cycle;Max_cycle;Signal;HPM_P1;HPM_P2
2023/03/13 00:02:49;;;;;;;17.85;6.55;;;8.50;99.90;;;;;;5026949;28;20072;-53
2023/03/13 00:05:35;;;;;;;17.60;6.30;;;8.50;99.90;;;;;;5027138;28;20305;-55
2023/03/13 00:08:21;;;;;;;17.10;6.82;;;8.40;99.90;;;;;;5017407;28;20021;-52
2023/03/13 00:11:09;;;;;;;22.58;7.05;;;8.30;99.90;;;;;;5032575;28;20025;-56
2023/03/13 00:13:57;;;;;;;23.77;7.13;;;8.40;99.90;;;;;;5029966;28;20037;-58
2023/03/13 00:16:43;;;;;;;17.85;7.55;;;8.40;99.90;;;;;;5024387;28;20087;-54
2023/03/13 00:19:29;;;;;;;26.80;7.85;;;8.40;99.90;;;;;;5027917;28;20033;-55
2023/03/13 00:22:15;;;;;;;23.83;7.30;;;8.50;99.90;;;;;;5023645;28;20140;-49
2023/03/13 00:25:01;;;;;;;20.33;6.72;;;8.50;99.90;;;;;;5028921;28;20060;-53
2023/03/13 00:27:47;;;;;;;21.42;6.30;;;8.50;99.90;;;;;;5030628;28;20034;-55
2023/03/13 00:30:33;;;;;;;24.77;6.85;;;8.70;99.90;;;;;;5013990;28;20040;-53
2023/03/13 00:33:19;;;;;;;22.05;6.70;;;8.90;99.90;;;;;;5030108;28;20061;-54
2023/03/13 00:36:07;;;;;;;16.58;7.00;;;9.00;99.90;;;;;;5033535;28;20087;-52
2023/03/13 00:38:54;;;;;;;16.98;6.47;;;9.00;99.90;;;;;;5031487;28;20030;-51
2023/03/13 00:41:40;;;;;;;22.65;7.28;;;9.00;99.90;;;;;;5020932;28;20091;-52
2023/03/13 00:44:26;;;;;;;18.67;6.32;;;9.00;99.90;;;;;;5032409;28;20033;-53
2023/03/13 00:47:12;;;;;;;22.83;6.88;;;9.10;99.90;;;;;;5031730;28;20029;-56
2023/03/13 00:49:58;;;;;;;18.50;6.13;;;9.10;99.90;;;;;;5033269;28;20028;-57
2023/03/13 00:52:44;;;;;;;16.27;6.57;;;9.10;99.90;;;;;;5033085;28;20104;-54
2023/03/13 00:55:29;;;;;;;19.85;6.55;;;9.20;99.90;;;;;;5032751;28;20026;-51
2023/03/13 00:58:15;;;;;;;17.65;5.80;;;9.20;99.90;;;;;;5032508;28;20048;-53
2023/03/13 01:01:09;;;;;;;16.85;6.25;;;9.30;99.90;;;;;;5029712;28;20038;-52
2023/03/13 01:03:59;;;;;;;21.48;7.03;;;9.40;99.90;;;;;;5028612;28;20514;-54
2023/03/13 01:06:44;;;;;;;15.00;6.25;;;9.30;99.90;;;;;;5014044;28;20049;-51
2023/03/13 01:09:30;;;;;;;19.10;6.65;;;9.20;99.90;;;;;;5032823;28;20074;-52
2023/03/13 01:12:16;;;;;;;18.25;6.13;;;9.20;99.90;;;;;;5030730;28;20076;-54
2023/03/13 01:15:02;;;;;;;18.17;6.30;;;9.10;99.90;;;;;;5032464;28;20057;-51
2023/03/13 01:17:49;;;;;;;21.88;6.50;;;9.00;99.90;;;;;;5031855;28;20030;-54
2023/03/13 01:20:35;;;;;;;17.33;6.20;;;9.00;99.90;;;;;;5032278;28;20029;-53
2023/03/13 01:23:21;;;;;;;19.85;7.10;;;8.90;99.90;;;;;;5032293;28;20095;-51
2023/03/13 01:26:08;;;;;;;23.40;6.97;;;9.00;99.90;;;;;;5031997;28;20080;-57
2023/03/13 01:28:54;;;;;;;20.23;6.75;;;9.00;99.90;;;;;;5031462;28;20053;-54
2023/03/13 01:31:40;;;;;;;14.75;5.88;;;9.00;99.90;;;;;;5032267;28;20029;-55
2023/03/13 01:34:26;;;;;;;19.30;6.68;;;8.90;99.90;;;;;;5031355;28;20075;-53
2023/03/13 01:37:12;;;;;;;17.80;6.35;;;8.90;99.90;;;;;;5030779;28;20025;-57
2023/03/13 01:39:58;;;;;;;21.33;6.88;;;9.00;99.90;;;;;;5031249;28;20061;-51
2023/03/13 01:42:55;;;;;;;18.17;5.60;;;9.00;99.90;;;;;;5031382;28;20065;-59
2023/03/13 01:46:09;;;;;;;18.65;5.82;;;9.00;99.90;;;;;;5030212;28;20402;-56
2023/03/13 01:49:14;;;;;;;16.55;6.25;;;9.00;99.90;;;;;;5031422;28;20521;-55
2023/03/13 01:52:07;;;;;;;17.63;6.50;;;8.90;99.90;;;;;;5016952;28;20029;-55
2023/03/13 01:55:02;;;;;;;17.60;6.90;;;8.80;99.90;;;;;;5023457;28;20030;-59
2023/03/13 01:57:51;;;;;;;15.80;6.75;;;8.80;99.90;;;;;;5010152;28;20130;-58
2023/03/13 02:00:41;;;;;;;14.38;5.97;;;8.70;99.90;;;;;;5016848;28;20029;-52
2023/03/13 02:03:28;;;;;;;15.13;6.43;;;8.70;99.90;;;;;;5030768;28;20034;-55
2023/03/13 02:06:14;;;;;;;20.67;6.00;;;8.70;99.90;;;;;;5031023;28;20080;-58
2023/03/13 02:09:04;;;;;;;18.77;6.35;;;8.70;99.90;;;;;;5030211;28;20029;-55
2023/03/13 02:12:08;;;;;;;18.45;7.05;;;8.70;99.90;;;;;;5031253;28;20605;-58
2023/03/13 02:14:56;;;;;;;18.15;6.78;;;8.70;99.90;;;;;;5029928;28;20030;-55
2023/03/13 02:17:44;;;;;;;21.92;6.30;;;8.70;99.90;;;;;;5015930;28;20029;-56
2023/03/13 02:20:30;;;;;;;21.67;6.75;;;8.60;99.90;;;;;;5030172;28;20032;-59
2023/03/13 02:23:30;;;;;;;16.77;5.68;;;8.60;99.90;;;;;;5029461;28;20045;-56
2023/03/13 02:26:17;;;;;;;17.35;5.55;;;8.60;99.90;;;;;;5028900;28;20034;-56
2023/03/13 02:29:03;;;;;;;26.23;7.82;;;8.70;99.90;;;;;;5021937;28;20073;-54
2023/03/13 02:31:49;;;;;;;21.08;6.55;;;8.60;99.90;;;;;;5001399;28;20029;-54
2023/03/13 02:34:39;;;;;;;15.10;5.57;;;8.70;99.90;;;;;;5030172;28;20065;-59
2023/03/13 02:37:28;;;;;;;18.17;5.47;;;8.70;99.90;;;;;;5030063;28;20029;-54
2023/03/13 02:40:20;;;;;;;18.95;6.72;;;8.80;99.90;;;;;;5030819;28;20409;-59
2023/03/13 02:43:19;;;;;;;20.75;6.10;;;8.80;99.90;;;;;;5028508;28;20127;-58
2023/03/13 02:46:15;;;;;;;14.57;6.50;;;8.90;99.90;;;;;;5018937;28;20041;-59
2023/03/13 02:49:18;;;;;;;22.80;6.75;;;8.90;99.90;;;;;;5022459;28;20036;-58
2023/03/13 02:52:25;;;;;;;23.52;6.88;;;8.90;99.90;;;;;;5024782;28;20033;-60
2023/03/13 02:55:21;;;;;;;24.92;6.22;;;8.90;99.90;;;;;;5016998;28;20029;-59
2023/03/13 02:58:07;;;;;;;19.85;6.20;;;8.90;99.90;;;;;;5014059;28;20022;-59
2023/03/13 03:00:53;;;;;;;20.42;6.13;;;9.00;99.90;;;;;;5027867;28;20060;-59
2023/03/13 03:03:39;;;;;;;20.20;6.35;;;9.00;99.90;;;;;;5030149;28;20565;-58
2023/03/13 03:06:25;;;;;;;17.92;5.45;;;9.00;99.90;;;;;;5029583;28;20557;-61
2023/03/13 03:09:11;;;;;;;19.80;6.07;;;9.00;99.90;;;;;;5014898;28;20037;-55
2023/03/13 03:11:57;;;;;;;16.38;5.90;;;8.90;99.90;;;;;;5030606;28;20152;-59
2023/03/13 03:14:43;;;;;;;19.70;6.18;;;9.00;99.90;;;;;;5030000;28;20026;-60
2023/03/13 03:17:29;;;;;;;19.88;5.43;;;8.90;99.90;;;;;;5029472;28;20038;-58
2023/03/13 03:20:15;;;;;;;21.60;5.75;;;8.90;99.90;;;;;;5030906;28;20048;-59
2023/03/13 03:23:01;;;;;;;17.92;6.00;;;8.90;99.90;;;;;;5016865;28;20485;-60
2023/03/13 03:25:47;;;;;;;25.63;6.32;;;8.90;99.90;;;;;;5030267;28;20029;-59
2023/03/13 03:28:33;;;;;;;17.58;6.60;;;8.90;99.90;;;;;;5029010;28;20039;-59
2023/03/13 03:31:19;;;;;;;20.25;7.28;;;8.80;99.90;;;;;;5030237;28;20104;-54
2023/03/13 03:34:05;;;;;;;20.88;7.20;;;8.80;99.90;;;;;;5017145;28;20026;-56
2023/03/13 03:36:51;;;;;;;20.65;5.97;;;8.80;99.90;;;;;;5028530;28;20135;-57
2023/03/13 03:39:37;;;;;;;18.75;6.25;;;8.80;99.90;;;;;;5016285;28;20064;-58
2023/03/13 03:42:22;;;;;;;17.58;5.80;;;8.80;99.90;;;;;;5029149;28;20104;-59
2023/03/13 03:45:09;;;;;;;23.55;7.45;;;8.70;99.90;;;;;;5030070;28;20076;-59
2023/03/13 03:47:58;;;;;;;20.48;6.38;;;8.70;99.90;;;;;;5022928;28;20085;-54
2023/03/13 03:50:44;;;;;;;17.88;6.72;;;8.70;99.90;;;;;;5029289;28;20105;-60
2023/03/13 03:53:31;;;;;;;17.35;5.80;;;8.70;99.90;;;;;;5029249;28;20030;-55
2023/03/13 03:56:17;;;;;;;17.40;6.10;;;8.60;99.90;;;;;;5029419;28;20030;-58
2023/03/13 03:59:03;;;;;;;17.70;5.38;;;8.70;99.90;;;;;;5029073;28;20030;-55
2023/03/13 04:01:49;;;;;;;16.85;5.95;;;8.60;99.90;;;;;;5029258;28;20039;-57
2023/03/13 04:04:34;;;;;;;20.58;5.95;;;8.60;99.90;;;;;;5029005;28;20034;-59
2023/03/13 04:07:20;;;;;;;24.98;10.73;;;8.60;99.90;;;;;;5028708;28;20405;-57
2023/03/13 04:10:07;;;;;;;24.83;6.63;;;8.60;99.90;;;;;;5028606;28;20026;-60
2023/03/13 04:12:53;;;;;;;18.80;6.82;;;8.60;99.90;;;;;;5029659;28;20164;-58
2023/03/13 04:15:40;;;;;;;21.65;7.78;;;8.60;99.90;;;;;;5029553;28;20033;-56
2023/03/13 04:18:26;;;;;;;22.85;12.15;;;8.70;99.90;;;;;;5015157;28;20116;-59
2023/03/13 04:21:12;;;;;;;19.63;7.63;;;8.70;99.90;;;;;;5028830;28;20087;-54
2023/03/13 04:23:58;;;;;;;21.77;6.78;;;8.70;99.90;;;;;;5028212;28;20083;-56
2023/03/13 04:26:43;;;;;;;20.23;7.20;;;8.70;99.90;;;;;;5029478;28;20114;-56
2023/03/13 04:29:29;;;;;;;18.77;6.07;;;8.70;99.90;;;;;;5001107;28;20620;-57
2023/03/13 04:32:15;;;;;;;22.25;6.63;;;8.70;99.90;;;;;;5029818;28;20456;-53
2023/03/13 04:35:01;;;;;;;16.98;6.43;;;8.70;99.90;;;;;;5029135;28;20025;-57
2023/03/13 04:37:47;;;;;;;15.82;7.20;;;8.70;99.90;;;;;;5027373;28;20423;-53
2023/03/13 04:40:33;;;;;;;18.00;6.05;;;8.70;99.90;;;;;;5029506;28;20084;-57
2023/03/13 04:43:19;;;;;;;20.90;6.55;;;8.80;99.90;;;;;;5028640;28;20156;-53
2023/03/13 04:46:05;;;;;;;22.08;6.43;;;8.80;99.90;;;;;;5029432;28;20168;-54
2023/03/13 04:48:51;;;;;;;19.58;6.60;;;8.80;99.90;;;;;;5018837;28;20120;-57
2023/03/13 04:51:37;;;;;;;20.75;6.65;;;8.80;99.90;;;;;;5032404;28;20091;-53
2023/03/13 04:54:23;;;;;;;19.67;6.45;;;8.80;99.90;;;;;;5033155;28;20056;-56
2023/03/13 04:57:08;;;;;;;20.02;7.15;;;8.80;99.90;;;;;;5032606;28;20030;-59
2023/03/13 04:59:54;;;;;;;16.00;5.63;;;8.90;99.90;;;;;;5033069;28;20032;-55
2023/03/13 05:02:40;;;;;;;18.35;6.10;;;8.90;99.90;;;;;;5033127;28;20494;-56
2023/03/13 05:05:26;;;;;;;21.08;6.32;;;8.90;99.90;;;;;;5032739;28;20486;-56
2023/03/13 05:08:12;;;;;;;25.10;7.10;;;8.90;99.90;;;;;;5031561;28;20394;-54
2023/03/13 05:10:58;;;;;;;18.02;5.93;;;8.90;99.90;;;;;;5013843;28;20026;-54
2023/03/13 05:13:44;;;;;;;19.10;7.85;;;8.80;99.90;;;;;;5033262;28;20103;-51
2023/03/13 05:16:30;;;;;;;15.05;6.15;;;8.80;99.90;;;;;;5032398;28;20490;-55
2023/03/13 05:19:16;;;;;;;20.40;6.28;;;8.70;99.90;;;;;;5031034;28;20410;-56
2023/03/13 05:22:02;;;;;;;19.13;6.85;;;8.70;99.90;;;;;;5032662;28;20033;-56
2023/03/13 05:24:48;;;;;;;17.88;7.43;;;8.80;99.90;;;;;;5032576;28;20029;-51
2023/03/13 05:27:34;;;;;;;31.05;10.27;;;8.80;99.90;;;;;;5031410;28;20025;-57
2023/03/13 05:30:20;;;;;;;22.33;7.30;;;8.90;99.90;;;;;;5032517;28;20078;-55
2023/03/13 05:33:06;;;;;;;20.50;6.88;;;8.90;99.90;;;;;;5031008;28;20030;-54
2023/03/13 05:35:52;;;;;;;25.95;6.53;;;8.90;99.90;;;;;;5010988;28;20034;-58
2023/03/13 05:38:38;;;;;;;21.75;5.82;;;8.80;99.90;;;;;;5026435;28;20038;-54
2023/03/13 05:41:24;;;;;;;16.58;5.68;;;8.80;99.90;;;;;;5031779;28;20037;-55
2023/03/13 05:44:10;;;;;;;20.75;7.15;;;8.90;99.90;;;;;;5030522;28;20040;-54
2023/03/13 05:46:56;;;;;;;18.15;6.13;;;9.00;99.90;;;;;;5032008;28;20026;-57
2023/03/13 05:49:42;;;;;;;24.10;6.55;;;9.00;99.90;;;;;;5024300;28;20277;-57
2023/03/13 05:52:27;;;;;;;19.83;6.18;;;9.00;99.90;;;;;;5031885;28;20061;-56
2023/03/13 05:55:14;;;;;;;25.13;5.88;;;9.10;99.90;;;;;;5031354;28;20040;-57
2023/03/13 05:57:59;;;;;;;21.08;6.40;;;9.30;99.90;;;;;;5029445;28;20347;-56
2023/03/13 06:00:45;;;;;;;18.63;6.40;;;9.30;99.90;;;;;;5030330;28;20050;-57
2023/03/13 06:03:31;;;;;;;20.08;6.03;;;9.30;99.90;;;;;;5032521;28;20111;-53
2023/03/13 06:06:17;;;;;;;16.48;6.45;;;9.30;99.90;;;;;;5031611;28;20046;-53
2023/03/13 06:09:04;;;;;;;18.58;5.70;;;9.40;99.90;;;;;;5031415;28;20057;-52
2023/03/13 06:11:50;;;;;;;11.02;4.88;;;9.40;99.90;;;;;;5023317;28;20038;-54
2023/03/13 06:14:36;;;;;;;24.80;6.03;;;9.50;99.90;;;;;;5004101;28;20025;-53
2023/03/13 06:17:24;;;;;;;15.07;6.10;;;9.50;99.90;;;;;;5029766;28;20095;-54
2023/03/13 06:20:10;;;;;;;30.52;10.75;;;9.50;99.90;;;;;;5031148;28;20116;-54
2023/03/13 06:22:56;;;;;;;18.85;6.88;;;9.50;99.90;;;;;;5017962;28;20056;-54
2023/03/13 06:25:46;;;;;;;16.95;5.93;;;9.40;99.90;;;;;;5031639;28;20120;-52
2023/03/13 06:28:32;;;;;;;15.35;5.50;;;9.50;99.90;;;;;;5029657;28;20040;-53
2023/03/13 06:31:18;;;;;;;17.70;6.43;;;9.50;99.90;;;;;;5031506;28;20030;-50
2023/03/13 06:34:04;;;;;;;15.13;5.38;;;9.60;99.90;;;;;;5030563;28;20033;-50
2023/03/13 06:36:50;;;;;;;14.93;6.25;;;9.60;99.90;;;;;;5030874;28;20028;-50
2023/03/13 06:39:36;;;;;;;16.60;6.32;;;9.60;99.90;;;;;;5030537;28;20053;-51
2023/03/13 06:42:22;;;;;;;15.80;5.72;;;9.70;99.90;;;;;;5011880;28;20510;-54
2023/03/13 06:45:08;;;;;;;17.60;6.10;;;9.70;99.90;;;;;;5029917;28;20040;-56
2023/03/13 06:47:54;;;;;;;15.55;5.93;;;9.70;99.90;;;;;;5009755;28;20127;-57
2023/03/13 06:50:41;;;;;;;24.08;6.55;;;9.70;99.90;;;;;;5010482;28;20033;-53
2023/03/13 06:53:26;;;;;;;17.75;6.50;;;9.70;99.90;;;;;;5010533;28;20402;-55
2023/03/13 06:56:13;;;;;;;14.98;6.20;;;9.70;99.90;;;;;;5028036;28;20034;-58
2023/03/13 06:58:59;;;;;;;17.65;6.03;;;9.70;99.90;;;;;;5029985;28;20104;-57
2023/03/13 07:01:45;;;;;;;20.00;6.28;;;9.70;99.90;;;;;;5017682;28;20088;-60
2023/03/13 07:04:31;;;;;;;19.92;6.50;;;9.70;99.90;;;;;;5026736;28;20025;-55
2023/03/13 07:07:17;;;;;;;16.25;5.70;;;9.70;99.90;;;;;;5036999;28;20026;-56
2023/03/13 07:10:03;;;;;;;20.63;6.00;;;9.70;99.90;;;;;;5033621;28;20490;-56
2023/03/13 07:12:49;;;;;;;16.33;4.97;;;9.70;99.90;;;;;;5028416;28;20112;-55
2023/03/13 07:15:35;;;;;;;15.82;6.57;;;9.80;99.90;;;;;;5016019;28;20032;-50
2023/03/13 07:18:22;;;;;;;12.65;4.68;;;9.80;99.90;;;;;;5028292;28;20038;-53
2023/03/13 07:21:09;;;;;;;15.15;5.60;;;9.90;99.90;;;;;;5019723;28;20041;-54
2023/03/13 07:23:55;;;;;;;8.30;4.05;;;9.90;99.90;;;;;;5000069;28;20026;-54
2023/03/13 07:26:41;;;;;;;11.10;4.13;;;10.00;99.90;;;;;;5015410;28;20036;-57
2023/03/13 07:29:27;;;;;;;8.23;3.97;;;10.10;99.90;;;;;;5030130;28;20037;-54
2023/03/13 07:32:12;;;;;;;8.70;3.05;;;10.20;99.90;;;;;;5028577;28;20036;-56
2023/03/13 07:34:58;;;;;;;8.15;3.20;;;10.20;99.90;;;;;;5006618;28;20032;-53
2023/03/13 07:37:44;;;;;;;8.18;3.42;;;10.30;99.90;;;;;;5029228;28;20121;-55
2023/03/13 07:40:30;;;;;;;6.53;3.03;;;10.40;99.90;;;;;;5014264;28;20045;-53
2023/03/13 07:43:17;;;;;;;7.45;3.10;;;10.40;99.90;;;;;;5031255;28;20037;-57
2023/03/13 07:46:04;;;;;;;5.60;3.13;;;10.50;99.90;;;;;;5031332;28;20096;-57
2023/03/13 07:48:51;;;;;;;7.13;2.67;;;10.50;99.90;;;;;;5032259;28;20045;-55
2023/03/13 07:51:37;;;;;;;8.98;2.70;;;10.60;99.90;;;;;;5020957;28;20436;-55
2023/03/13 07:54:23;;;;;;;4.57;2.40;;;10.60;99.90;;;;;;5036454;28;20088;-58
2023/03/13 07:57:09;;;;;;;3.78;2.40;;;10.70;99.90;;;;;;5005966;28;20080;-57
2023/03/13 07:59:55;;;;;;;5.03;2.75;;;10.70;99.90;;;;;;5029713;28;20069;-56
2023/03/13 08:02:41;;;;;;;4.38;2.42;;;10.60;99.90;;;;;;5020088;28;20034;-58
2023/03/13 08:05:27;;;;;;;5.47;2.63;;;10.70;99.90;;;;;;5026720;28;20022;-60
2023/03/13 08:08:13;;;;;;;8.05;2.40;;;10.70;99.90;;;;;;5003567;28;20025;-54
2023/03/13 08:11:04;;;;;;;7.03;2.97;;;10.70;99.90;;;;;;5022586;28;20022;-53
2023/03/13 08:13:51;;;;;;;5.88;2.78;;;10.80;99.90;;;;;;5013427;28;20052;-59
2023/03/13 08:16:37;;;;;;;5.53;2.65;;;10.80;99.90;;;;;;5024602;28;20113;-61
2023/03/13 08:19:23;;;;;;;4.72;2.45;;;10.80;99.90;;;;;;5028822;28;20525;-60
2023/03/13 08:22:09;;;;;;;5.85;2.53;;;10.90;99.90;;;;;;5023498;28;20052;-58
2023/03/13 08:24:55;;;;;;;4.18;2.60;;;10.90;99.90;;;;;;5024535;28;20112;-58
2023/03/13 08:27:41;;;;;;;5.65;2.50;;;10.90;99.90;;;;;;5022349;28;20108;-61
2023/03/13 08:30:27;;;;;;;9.43;3.00;;;10.90;99.90;;;;;;5012240;28;20061;-52
2023/03/13 08:33:13;;;;;;;7.43;3.30;;;10.90;99.90;;;;;;5031074;28;20033;-57
2023/03/13 08:35:59;;;;;;;5.93;2.67;;;11.00;99.90;;;;;;5007683;28;20029;-54
2023/03/13 08:38:46;;;;;;;10.07;3.58;;;11.00;99.90;;;;;;5027475;28;20038;-56
2023/03/13 08:41:35;;;;;;;4.80;2.63;;;11.00;99.90;;;;;;5031119;28;20517;-57
2023/03/13 08:44:21;;;;;;;6.20;3.55;;;11.00;99.90;;;;;;5030188;28;20033;-58
2023/03/13 08:47:07;;;;;;;4.68;2.28;;;11.00;99.90;;;;;;5028369;28;20029;-55
2023/03/13 08:49:54;;;;;;;4.07;2.50;;;11.10;99.90;;;;;;5030990;28;20026;-55
2023/03/13 08:52:43;;;;;;;6.07;2.88;;;11.10;99.90;;;;;;5031103;28;20040;-56
2023/03/13 08:55:29;;;;;;;3.80;2.53;;;11.20;99.90;;;;;;5030168;28;20081;-59
2023/03/13 08:58:15;;;;;;;5.00;2.30;;;11.30;99.90;;;;;;5030462;28;20033;-53
2023/03/13 09:01:07;;;;;;;6.20;2.95;;;11.30;99.90;;;;;;5012058;28;20113;-56
2023/03/13 09:03:53;;;;;;;2.55;2.00;;;11.30;99.90;;;;;;5013771;28;20053;-57
2023/03/13 09:06:38;;;;;;;4.00;2.10;;;11.40;99.90;;;;;;5027397;28;20045;-56
2023/03/13 09:09:24;;;;;;;3.85;2.17;;;11.40;99.90;;;;;;4998508;28;20038;-56
2023/03/13 09:12:10;;;;;;;4.93;2.50;;;11.50;99.90;;;;;;5014897;28;20057;-56
2023/03/13 09:14:56;;;;;;;4.72;2.45;;;11.50;99.90;;;;;;5024598;28;20516;-55
2023/03/13 09:17:42;;;;;;;5.88;3.38;;;11.60;99.90;;;;;;5026515;28;20057;-56
2023/03/13 09:20:28;;;;;;;17.92;4.05;;;11.60;99.90;;;;;;5029938;28;20510;-57
2023/03/13 09:23:14;;;;;;;4.53;2.50;;;11.50;99.90;;;;;;5031992;28;20029;-56
2023/03/13 09:26:01;;;;;;;4.10;2.20;;;11.50;99.90;;;;;;5030568;28;20033;-58
2023/03/13 09:28:47;;;;;;;3.00;2.30;;;11.50;99.90;;;;;;5028483;28;20033;-56
2023/03/13 09:31:33;;;;;;;6.68;3.40;;;11.60;99.90;;;;;;5029766;28;20032;-53
2023/03/13 09:34:19;;;;;;;3.70;2.30;;;11.60;99.90;;;;;;5024717;28;20022;-57
2023/03/13 09:37:05;;;;;;;2.88;2.10;;;11.70;99.90;;;;;;5028508;28;20775;-58
2023/03/13 09:39:51;;;;;;;3.67;2.22;;;11.80;99.90;;;;;;5027781;28;20112;-54
2023/03/13 09:42:46;;;;;;;3.33;2.20;;;11.80;99.90;;;;;;5029385;28;20017;-55
2023/03/13 09:45:37;;;;;;;3.13;2.17;;;11.80;99.90;;;;;;5018455;28;20017;-56
2023/03/13 09:48:34;;;;;;;3.85;2.10;;;11.90;99.90;;;;;;5026484;28;20022;-53
2023/03/13 09:51:35;;;;;;;4.03;2.15;;;11.90;99.90;;;;;;5029585;28;20498;-55
2023/03/13 09:54:30;;;;;;;3.22;2.13;;;12.00;99.90;;;;;;5026544;28;20410;-57
2023/03/13 09:57:28;;;;;;;3.50;2.10;;;12.10;99.90;;;;;;5030243;28;20102;-53
2023/03/13 10:00:26;;;;;;;2.95;2.15;;;12.30;99.90;;;;;;5026547;28;20034;-54
2023/03/13 10:03:41;;;;;;;3.38;2.00;;;12.30;99.90;;;;;;5030065;28;20029;-56
2023/03/13 10:06:32;;;;;;;2.92;1.92;;;12.30;99.90;;;;;;5011638;28;20047;-58
2023/03/13 10:09:22;;;;;;;3.15;1.95;;;12.50;99.90;;;;;;5031676;28;20040;-55
2023/03/13 10:12:22;;;;;;;2.92;1.80;;;12.50;99.90;;;;;;5030169;28;20018;-57
2023/03/13 10:15:26;;;;;;;2.25;2.00;;;12.50;99.90;;;;;;5027442;28;20029;-54
2023/03/13 10:18:18;;;;;;;2.30;1.83;;;12.50;99.90;;;;;;5010113;28;20830;-55
2023/03/13 10:21:17;;;;;;;2.70;2.20;;;12.60;99.90;;;;;;5027469;28;20135;-55
2023/03/13 10:24:25;;;;;;;3.78;2.20;;;12.60;99.90;;;;;;5013583;28;20030;-57
2023/03/13 10:27:13;;;;;;;2.33;2.08;;;12.50;99.90;;;;;;5027392;28;20108;-53
2023/03/13 10:29:59;;;;;;;2.90;2.28;;;12.50;99.90;;;;;;5031722;28;20398;-54
2023/03/13 10:32:45;;;;;;;3.92;2.72;;;12.50;99.90;;;;;;5030966;28;20040;-58
2023/03/13 10:35:35;;;;;;;2.70;2.25;;;12.50;99.90;;;;;;5030953;28;20083;-53
2023/03/13 10:38:21;;;;;;;2.67;2.28;;;12.50;99.90;;;;;;5017570;28;20025;-51
2023/03/13 10:41:27;;;;;;;2.70;2.33;;;12.60;99.90;;;;;;5028888;28;20394;-54
2023/03/13 10:44:19;;;;;;;3.55;2.35;;;12.60;99.90;;;;;;5011996;28;20099;-53
2023/03/13 10:47:11;;;;;;;3.70;2.35;;;12.70;99.90;;;;;;5016785;28;20103;-55
2023/03/13 10:49:57;;;;;;;2.55;2.05;;;12.70;99.90;;;;;;5030770;28;20072;-55
2023/03/13 10:52:46;;;;;;;2.50;1.92;;;12.80;99.90;;;;;;5031261;28;20109;-54
2023/03/13 10:55:32;;;;;;;2.80;2.22;;;13.00;99.90;;;;;;5030652;28;20022;-51
2023/03/13 10:58:34;;;;;;;3.72;2.53;;;13.00;99.90;;;;;;5029640;28;20030;-51
2023/03/13 11:01:28;;;;;;;3.70;2.45;;;13.10;99.90;;;;;;5028619;28;20026;-50
2023/03/13 11:04:36;;;;;;;3.47;2.30;;;13.20;99.90;;;;;;5030244;28;20112;-51
2023/03/13 11:07:45;;;;;;;4.68;2.50;;;13.40;99.90;;;;;;5028671;28;20037;-51
2023/03/13 11:10:35;;;;;;;2.90;2.38;;;13.60;99.90;;;;;;5021687;28;20060;-53
2023/03/13 11:13:38;;;;;;;3.25;2.45;;;13.60;99.90;;;;;;5030288;28;20032;-53
2023/03/13 11:16:28;;;;;;;4.93;2.53;;;13.60;99.90;;;;;;5029627;28;20021;-55
2023/03/13 11:20:18;;;;;;;2.70;2.22;;;13.70;99.90;;;;;;5030154;28;20152;-53
2023/03/13 11:23:25;;;;;;;4.28;2.33;;;13.80;99.90;;;;;;5028120;28;20402;-55
2023/03/13 11:26:30;;;;;;;4.88;2.60;;;13.80;99.90;;;;;;5017082;28;20061;-56
2023/03/13 11:29:26;;;;;;;3.10;2.58;;;14.00;99.90;;;;;;5008994;28;20082;-56
2023/03/13 11:32:27;;;;;;;4.13;2.40;;;14.00;99.90;;;;;;5027936;28;20120;-50
2023/03/13 11:35:38;;;;;;;3.72;3.00;;;14.10;99.90;;;;;;5016075;28;20056;-54
2023/03/13 11:38:38;;;;;;;2.92;2.50;;;14.20;99.90;;;;;;5009172;28;20025;-58
2023/03/13 11:41:24;;;;;;;3.75;2.80;;;14.30;99.90;;;;;;5005257;28;20032;-58
2023/03/13 11:44:29;;;;;;;4.30;2.63;;;14.50;99.90;;;;;;5033651;28;20825;-58
2023/03/13 11:47:33;;;;;;;4.20;2.78;;;14.70;99.90;;;;;;5034709;28;20029;-56
2023/03/13 11:50:31;;;;;;;3.15;2.80;;;14.80;99.90;;;;;;5036005;28;20037;-58
2023/03/13 11:53:25;;;;;;;3.58;2.63;;;14.70;99.90;;;;;;5019219;28;20029;-58
2023/03/13 11:56:20;;;;;;;3.40;2.70;;;14.90;99.90;;;;;;5023209;28;20037;-53
2023/03/13 11:59:30;;;;;;;5.95;3.30;;;14.90;99.90;;;;;;5038399;28;20036;-54
2023/03/13 12:02:32;;;;;;;2.80;2.45;;;14.90;99.90;;;;;;5039803;28;20022;-55
2023/03/13 12:05:20;;;;;;;7.00;3.10;;;14.90;99.90;;;;;;5039882;28;20505;-60
2023/03/13 12:08:37;;;;;;;2.65;2.42;;;15.00;99.90;;;;;;5036736;28;20508;-55
2023/03/13 12:11:47;;;;;;;4.03;2.42;;;15.10;99.90;;;;;;5035613;28;20028;-57
2023/03/13 12:14:39;;;;;;;2.92;2.40;;;15.30;99.90;;;;;;5035106;28;20208;-58
2023/03/13 12:17:35;;;;;;;3.03;2.53;;;15.40;99.90;;;;;;5034314;28;20047;-54
2023/03/13 12:20:36;;;;;;;3.85;2.58;;;15.40;99.90;;;;;;5034363;28;20040;-58
2023/03/13 12:23:38;;;;;;;4.78;2.67;;;15.50;99.90;;;;;;5035313;28;20056;-57
2023/03/13 12:26:38;;;;;;;3.22;2.53;;;15.40;99.90;;;;;;5036782;28;20104;-57
2023/03/13 12:29:36;;;;;;;4.22;2.85;;;15.40;99.90;;;;;;5035410;28;20048;-61
2023/03/13 12:32:32;;;;;;;4.65;2.70;;;15.50;99.90;;;;;;5037220;28;20018;-57
2023/03/13 12:35:29;;;;;;;3.58;2.80;;;15.40;99.90;;;;;;5038600;28;20133;-55
2023/03/13 12:38:36;;;;;;;4.10;2.55;;;15.50;99.90;;;;;;5032977;28;20033;-53
2023/03/13 12:41:30;;;;;;;3.88;2.50;;;15.50;99.90;;;;;;5021119;28;20048;-59
2023/03/13 12:44:18;;;;;;;5.88;2.60;;;15.50;99.90;;;;;;5035249;28;20021;-60
2023/03/13 12:47:25;;;;;;;3.08;2.65;;;15.50;99.90;;;;;;5035603;28;20046;-57
2023/03/13 12:50:42;;;;;;;4.18;2.45;;;15.50;99.90;;;;;;5037066;28;20140;-59
2023/03/13 12:53:57;;;;;;;3.03;2.72;;;15.60;99.90;;;;;;5016017;28;20022;-58
2023/03/13 12:56:46;;;;;;;4.68;3.13;;;15.70;99.90;;;;;;4995614;28;20029;-56
2023/03/13 12:59:37;;;;;;;4.90;2.70;;;15.80;99.90;;;;;;5015008;28;20028;-52
2023/03/13 13:02:27;;;;;;;4.97;2.85;;;15.90;99.90;;;;;;5024845;28;20022;-55
2023/03/13 13:05:20;;;;;;;4.47;3.13;;;15.80;99.90;;;;;;5016501;28;20022;-52
2023/03/13 13:08:24;;;;;;;4.65;2.88;;;15.80;99.90;;;;;;5019877;28;20034;-56
2023/03/13 13:11:36;;;;;;;4.18;2.97;;;15.70;99.90;;;;;;5014121;28;20092;-56
2023/03/13 13:14:22;;;;;;;4.90;2.90;;;15.70;99.90;;;;;;5018117;28;20021;-58
2023/03/13 13:17:23;;;;;;;4.85;2.88;;;15.70;99.90;;;;;;5001709;28;20050;-57
2023/03/13 13:20:32;;;;;;;4.93;3.10;;;15.60;99.90;;;;;;5014367;28;20103;-60
2023/03/13 13:23:36;;;;;;;5.68;3.08;;;15.60;99.90;;;;;;5022649;28;20075;-59
2023/03/13 13:26:35;;;;;;;5.15;3.08;;;15.50;99.90;;;;;;5033728;28;20082;-60
2023/03/13 13:29:24;;;;;;;3.85;2.92;;;15.50;99.90;;;;;;5018360;28;20112;-60
2023/03/13 13:32:13;;;;;;;4.65;2.97;;;15.50;99.90;;;;;;5034955;28;20079;-58
2023/03/13 13:35:01;;;;;;;6.50;3.00;;;15.40;99.90;;;;;;5020060;28;20104;-54
2023/03/13 13:37:48;;;;;;;3.40;2.80;;;15.40;99.90;;;;;;5034108;28;20059;-57
2023/03/13 13:40:34;;;;;;;4.68;3.10;;;15.50;99.90;;;;;;5034210;28;20482;-58
2023/03/13 13:43:22;;;;;;;4.45;3.05;;;15.50;99.90;;;;;;5034424;28;20034;-55
2023/03/13 13:46:31;;;;;;;3.35;2.92;;;15.50;99.90;;;;;;5033155;28;20029;-52
2023/03/13 13:49:20;;;;;;;5.90;3.35;;;15.50;99.90;;;;;;5031724;28;20025;-54
2023/03/13 13:52:06;;;;;;;3.40;2.63;;;15.40;99.90;;;;;;5033594;28;20028;-57
2023/03/13 13:54:55;;;;;;;3.58;3.00;;;15.50;99.90;;;;;;5035306;28;20375;-56
2023/03/13 13:57:42;;;;;;;4.15;2.95;;;15.50;99.90;;;;;;5031256;28;20083;-58
2023/03/13 14:00:44;;;;;;;4.97;2.95;;;15.50;99.90;;;;;;5031715;28;20026;-60
2023/03/13 14:03:32;;;;;;;3.60;2.80;;;15.50;99.90;;;;;;5023824;28;20094;-56
2023/03/13 14:06:23;;;;;;;3.10;2.80;;;15.50;99.90;;;;;;5013767;28;20030;-53
2023/03/13 14:09:19;;;;;;;4.18;2.70;;;15.60;99.90;;;;;;5031432;28;20516;-59
2023/03/13 14:12:34;;;;;;;3.20;2.60;;;15.60;99.90;;;;;;5032947;28;20352;-60
2023/03/13 14:15:26;;;;;;;3.88;2.90;;;15.60;99.90;;;;;;5002566;28;20037;-57
2023/03/13 14:18:23;;;;;;;3.50;2.70;;;15.50;99.90;;;;;;5011131;28;20530;-65
2023/03/13 14:21:13;;;;;;;4.03;2.80;;;15.60;99.90;;;;;;5019480;28;20038;-60
2023/03/13 14:23:58;;;;;;;2.90;2.60;;;15.50;99.90;;;;;;5013116;28;20025;-54
2023/03/13 14:26:44;;;;;;;2.92;2.58;;;15.60;99.90;;;;;;5012921;28;20103;-53
2023/03/13 14:29:30;;;;;;;2.80;2.50;;;15.60;99.90;;;;;;5012001;28;20450;-58
2023/03/13 14:32:16;;;;;;;4.10;3.00;;;15.60;99.90;;;;;;5013859;28;20507;-55
2023/03/13 14:35:04;;;;;;;4.50;2.90;;;15.60;99.90;;;;;;5011572;28;20100;-58
2023/03/13 14:37:53;;;;;;;3.00;2.70;;;15.70;99.90;;;;;;5012180;28;20056;-59
2023/03/13 14:40:39;;;;;;;3.53;2.67;;;15.70;99.90;;;;;;5012718;28;20108;-56
2023/03/13 14:43:41;;;;;;;4.40;2.83;;;15.70;99.90;;;;;;5011670;28;20045;-57
2023/03/13 14:46:31;;;;;;;3.97;2.97;;;15.70;99.90;;;;;;5012495;28;20022;-57